createdAt,value
2023-05-19T00:00:01.615Z,1022.119
2023-05-19T00:07:01.862Z,1022.119
2023-05-19T00:14:01.344Z,1022.109
2023-05-19T00:21:01.635Z,1022.109
2023-05-19T00:28:01.514Z,1022.013
2023-05-19T00:35:02.493Z,1022.013
2023-05-19T00:42:01.881Z,1022.031
2023-05-19T00:49:01.548Z,1022.031
2023-05-19T00:56:01.453Z,1022.14
2023-05-19T01:00:02.032Z,1022.14
2023-05-19T01:07:02.230Z,1022.041
2023-05-19T01:14:01.890Z,1022.041
2023-05-19T01:21:01.446Z,1022.034
2023-05-19T01:28:02.028Z,1022.034
2023-05-19T01:35:01.866Z,1021.99
2023-05-19T01:42:01.710Z,1021.99
2023-05-19T01:49:01.962Z,1022.027
2023-05-19T01:56:01.306Z,1021.992
2023-05-19T02:00:01.930Z,1021.992
2023-05-19T02:07:02.040Z,1021.992
2023-05-19T02:14:02.129Z,1022.121
2023-05-19T02:21:01.870Z,1022.083
2023-05-19T02:28:01.737Z,1022.083
2023-05-19T02:35:01.492Z,1021.928
2023-05-19T02:42:01.786Z,1021.928
2023-05-19T02:49:01.526Z,1021.846
2023-05-19T02:56:02.324Z,1021.846
2023-05-19T03:00:01.881Z,1021.775
2023-05-19T03:07:01.341Z,1021.775
2023-05-19T03:14:01.793Z,1021.763
2023-05-19T03:21:02.077Z,1021.763
2023-05-19T03:28:02.292Z,1021.882
2023-05-19T03:35:01.580Z,1021.882
2023-05-19T03:42:01.933Z,1021.755
2023-05-19T03:49:02.125Z,1021.755
2023-05-19T03:56:01.719Z,1021.818
2023-05-19T04:00:02.443Z,1021.818
2023-05-19T04:07:02.088Z,1021.812
2023-05-19T04:14:01.639Z,1021.812
2023-05-19T04:21:01.829Z,1021.988
2023-05-19T04:28:02.046Z,1021.988
2023-05-19T04:35:02.543Z,1021.635
2023-05-19T04:42:01.529Z,1021.635
2023-05-19T04:49:01.786Z,1021.856
2023-05-19T04:56:01.960Z,1022.011
2023-05-19T05:00:02.682Z,1022.011
2023-05-19T05:07:01.984Z,1022.011
2023-05-19T05:14:01.705Z,1021.808
2023-05-19T05:21:02.058Z,1021.956
2023-05-19T05:28:01.551Z,1021.956
2023-05-19T05:35:02.393Z,1021.847
2023-05-19T05:42:01.938Z,1021.847
2023-05-19T05:49:01.677Z,1022.003
2023-05-19T05:56:01.317Z,1022.003
2023-05-19T06:00:01.879Z,1021.756
2023-05-19T06:07:01.967Z,1021.756
2023-05-19T06:14:01.876Z,1021.704
2023-05-19T06:21:02.261Z,1021.704
2023-05-19T06:28:01.780Z,1021.736
2023-05-19T06:35:01.794Z,1021.736
2023-05-19T06:42:01.303Z,1021.803
2023-05-19T06:49:01.869Z,1021.803
2023-05-19T06:56:02.063Z,1021.734
2023-05-19T07:00:01.632Z,1021.734
2023-05-19T07:07:01.815Z,1021.615
2023-05-19T07:14:01.585Z,1021.615
2023-05-19T07:21:02.142Z,1021.658
2023-05-19T07:28:01.671Z,1021.658
2023-05-19T07:35:01.935Z,1021.745
2023-05-19T07:42:01.686Z,1021.745
2023-05-19T07:49:02.239Z,1021.499
2023-05-19T07:56:01.364Z,1021.533
2023-05-19T08:00:01.876Z,1021.533
2023-05-19T08:07:01.903Z,1021.533
2023-05-19T08:14:01.864Z,1021.251
2023-05-19T08:21:01.576Z,1021.251
2023-05-19T08:28:01.830Z,1021.29
2023-05-19T08:35:01.762Z,1021.295
2023-05-19T08:42:01.822Z,1021.295
2023-05-19T08:49:01.857Z,1021.174
2023-05-19T08:56:01.837Z,1021.174
2023-05-19T09:00:02.437Z,1020.861
2023-05-19T09:07:02.257Z,1020.861
2023-05-19T09:14:01.375Z,1020.89
2023-05-19T09:21:01.628Z,1020.89
2023-05-19T09:28:01.534Z,1020.958
2023-05-19T09:35:01.522Z,1020.958
2023-05-19T09:42:01.755Z,1020.733
2023-05-19T09:49:01.638Z,1020.733
2023-05-19T09:56:02.026Z,1020.498
2023-05-19T10:00:01.579Z,1020.498
2023-05-19T10:07:02.104Z,1020.396
2023-05-19T10:14:01.497Z,1020.396
2023-05-19T10:21:01.848Z,1020.655
2023-05-19T10:28:02.318Z,1020.655
2023-05-19T10:35:01.924Z,1020.424
2023-05-19T10:42:01.330Z,1020.424
2023-05-19T10:49:01.980Z,1020.248
2023-05-19T10:56:01.356Z,1020.114
2023-05-19T11:00:01.934Z,1020.114
2023-05-19T11:07:02.156Z,1020.114
2023-05-19T11:14:01.746Z,1020.146
2023-05-19T11:21:01.936Z,1020.146
2023-05-19T11:28:01.378Z,1020.053
2023-05-19T11:35:02.157Z,1019.828
2023-05-19T11:42:02.015Z,1019.828
2023-05-19T11:49:01.985Z,1019.878
2023-05-19T11:56:01.962Z,1019.878
2023-05-19T12:00:01.719Z,1020.006
2023-05-19T12:07:01.977Z,1020.006
2023-05-19T12:14:01.327Z,1019.887
2023-05-19T12:21:01.595Z,1019.887
2023-05-19T12:28:01.377Z,1019.524
2023-05-19T12:35:01.815Z,1019.524
2023-05-19T12:42:01.926Z,1019.621
2023-05-19T12:49:01.322Z,1019.621
2023-05-19T12:56:02.166Z,1019.275
2023-05-19T13:00:01.729Z,1019.275
2023-05-19T13:07:02.279Z,1019.384
2023-05-19T13:14:02.198Z,1019.384
2023-05-19T13:21:01.698Z,1019.355
2023-05-19T13:28:02.011Z,1019.355
2023-05-19T13:35:01.946Z,1019.042
2023-05-19T13:42:01.804Z,1019.042
2023-05-19T13:49:01.862Z,1019.06
2023-05-19T13:56:01.543Z,1019.036
2023-05-19T14:00:04.026Z,1019.036
2023-05-19T14:07:02.233Z,1019.036
2023-05-19T14:14:01.769Z,1018.897
2023-05-19T14:21:01.335Z,1018.897
2023-05-19T14:28:01.529Z,1019.033
2023-05-19T14:35:02.172Z,1018.799
2023-05-19T14:42:02.277Z,1018.799
2023-05-19T14:49:01.685Z,1018.742
2023-05-19T14:56:01.976Z,1018.742
2023-05-19T15:00:01.618Z,1018.742
2023-05-19T15:14:01.539Z,1018.548
2023-05-19T15:21:02.010Z,1018.548
2023-05-19T15:28:02.311Z,1018.649
2023-05-19T15:35:01.831Z,1018.649
2023-05-19T15:42:02.176Z,1018.701
2023-05-19T15:49:02.290Z,1018.701
2023-05-19T15:56:03.985Z,1018.33
2023-05-19T16:00:02.401Z,1018.33
2023-05-19T16:07:02.298Z,1018.438
2023-05-19T16:14:01.530Z,1018.438
2023-05-19T16:21:01.747Z,1018.435
2023-05-19T16:28:01.321Z,1018.435
2023-05-19T16:35:01.629Z,1018.186
2023-05-19T16:42:01.944Z,1018.186
2023-05-19T16:49:01.756Z,1017.967
2023-05-19T16:56:01.398Z,1017.967
2023-05-19T17:00:02.053Z,1017.962
2023-05-19T17:07:02.054Z,1017.962
2023-05-19T17:14:01.698Z,1018.013
2023-05-19T17:21:01.405Z,1018.013
2023-05-19T17:28:02.278Z,1017.807
2023-05-19T17:35:02.024Z,1017.999
2023-05-19T17:42:01.565Z,1017.999
2023-05-19T17:49:02.248Z,1018.138
2023-05-19T17:56:01.358Z,1018.138
2023-05-19T18:00:01.992Z,1018.138
2023-05-19T18:07:01.761Z,1018.154
2023-05-19T18:14:01.673Z,1018.215
2023-05-19T18:21:02.284Z,1018.215
2023-05-19T18:28:01.865Z,1018.151
2023-05-19T18:35:01.869Z,1018.151
2023-05-19T18:42:01.479Z,1018.207
2023-05-19T18:49:01.863Z,1018.207
2023-05-19T18:56:02.220Z,1018.37
2023-05-19T19:00:01.776Z,1018.37
2023-05-19T19:07:02.165Z,1018.377
2023-05-19T19:14:01.312Z,1018.377
2023-05-19T19:21:01.569Z,1018.581
2023-05-19T19:28:02.030Z,1018.581
2023-05-19T19:35:01.525Z,1018.802
2023-05-19T19:42:01.994Z,1018.802
2023-05-19T19:49:02.269Z,1018.748
2023-05-19T19:56:02.128Z,1018.748
2023-05-19T20:00:01.682Z,1018.844
2023-05-19T20:07:01.823Z,1018.844
2023-05-19T20:14:01.613Z,1018.956
2023-05-19T20:21:02.291Z,1018.956
2023-05-19T20:28:01.490Z,1018.948
2023-05-19T20:35:01.942Z,1019.12
2023-05-19T20:42:01.976Z,1019.12
2023-05-19T20:49:02.152Z,1019.115
2023-05-19T20:56:01.357Z,1019.115
2023-05-19T21:00:01.924Z,1019.115
2023-05-19T21:07:02.022Z,1019.093
2023-05-19T21:14:01.695Z,1019.312
2023-05-19T21:21:02.021Z,1019.312
2023-05-19T21:28:01.493Z,1019.033
2023-05-19T21:35:02.064Z,1019.033
2023-05-19T21:42:01.547Z,1019.288
2023-05-19T21:49:01.745Z,1019.288
2023-05-19T21:56:01.396Z,1019.21
2023-05-19T22:00:02.013Z,1019.21
2023-05-19T22:07:01.852Z,1019.395
2023-05-19T22:14:01.600Z,1019.395
2023-05-19T22:21:02.134Z,1019.199
2023-05-19T22:28:02.050Z,1019.199
2023-05-19T22:35:01.917Z,1019.469
2023-05-19T22:42:01.413Z,1019.469
2023-05-19T22:49:02.033Z,1019.455
2023-05-19T22:56:02.028Z,1019.455
2023-05-19T23:00:01.555Z,1019.397
2023-05-19T23:07:01.986Z,1019.397
2023-05-19T23:14:02.179Z,1019.173
2023-05-19T23:21:01.727Z,1019.173
2023-05-19T23:28:01.594Z,1019.245
2023-05-19T23:35:01.973Z,1019.192
2023-05-19T23:42:01.491Z,1019.192
2023-05-19T23:49:02.162Z,1019.127
2023-05-19T23:56:01.723Z,1019.127
